createdAt,value
2024-05-09T00:00:36.448Z,9.98
2024-05-09T00:03:42.856Z,8.93
2024-05-09T00:06:45.651Z,8.48
2024-05-09T00:09:49.128Z,8.33
2024-05-09T00:12:51.751Z,9.00
2024-05-09T00:15:54.438Z,9.10
2024-05-09T00:18:57.136Z,8.02
2024-05-09T00:21:59.808Z,10.02
2024-05-09T00:25:02.498Z,8.43
2024-05-09T00:28:06.156Z,8.82
2024-05-09T00:31:08.792Z,8.93
2024-05-09T00:34:11.596Z,9.75
2024-05-09T00:37:14.219Z,11.30
2024-05-09T00:40:26.513Z,8.63
2024-05-09T00:43:33.804Z,9.50
2024-05-09T00:46:36.604Z,9.93
2024-05-09T00:49:39.517Z,10.15
2024-05-09T00:52:43.604Z,12.68
2024-05-09T00:55:47.341Z,8.93
2024-05-09T00:58:51.129Z,9.15
2024-05-09T01:01:53.957Z,8.13
2024-05-09T01:04:56.878Z,7.60
2024-05-09T01:07:59.704Z,7.22
2024-05-09T01:11:02.540Z,7.10
2024-05-09T01:14:05.386Z,6.68
2024-05-09T01:17:08.135Z,10.38
2024-05-09T01:20:19.574Z,7.80
2024-05-09T01:23:22.949Z,6.60
2024-05-09T01:26:25.665Z,5.43
2024-05-09T01:29:28.427Z,6.30
2024-05-09T01:32:31.242Z,6.50
2024-05-09T01:35:34.045Z,7.97
2024-05-09T01:38:36.851Z,7.25
2024-05-09T01:41:39.768Z,5.40
2024-05-09T01:44:43.547Z,5.38
2024-05-09T01:47:46.414Z,5.40
2024-05-09T01:50:49.201Z,4.57
2024-05-09T01:53:54.674Z,4.38
2024-05-09T01:56:57.492Z,4.50
2024-05-09T02:00:00.262Z,5.15
2024-05-09T02:03:03.006Z,3.08
2024-05-09T02:06:05.917Z,5.43
2024-05-09T02:09:09.288Z,3.50
2024-05-09T02:12:12.105Z,3.30
2024-05-09T02:15:15.938Z,4.10
2024-05-09T02:18:20.637Z,2.80
2024-05-09T02:21:23.718Z,3.55
2024-05-09T02:24:26.340Z,3.00
2024-05-09T02:27:29.028Z,2.57
2024-05-09T02:30:39.366Z,6.10
2024-05-09T02:33:44.511Z,4.38
2024-05-09T02:36:47.141Z,2.78
2024-05-09T02:39:49.729Z,4.95
2024-05-09T02:42:52.342Z,2.97
2024-05-09T02:45:54.959Z,3.15
2024-05-09T02:48:57.748Z,4.25
2024-05-09T02:52:00.510Z,2.85
2024-05-09T02:55:03.188Z,2.60
2024-05-09T02:58:08.928Z,1.47
2024-05-09T03:01:11.596Z,1.73
2024-05-09T03:04:14.621Z,4.07
2024-05-09T03:07:19.752Z,2.10
2024-05-09T03:10:28.315Z,3.20
2024-05-09T03:13:31.613Z,3.70
2024-05-09T03:16:40.245Z,5.10
2024-05-09T03:19:42.847Z,3.47
2024-05-09T03:22:45.531Z,2.42
2024-05-09T03:25:48.227Z,2.40
2024-05-09T03:28:50.904Z,2.80
2024-05-09T03:31:53.688Z,2.33
2024-05-09T03:34:56.439Z,2.88
2024-05-09T03:37:59.083Z,4.25
2024-05-09T03:41:01.772Z,2.80
2024-05-09T03:44:04.987Z,2.50
2024-05-09T03:47:07.743Z,5.35
2024-05-09T03:50:18.129Z,2.55
2024-05-09T03:53:28.248Z,3.40
2024-05-09T03:56:31.058Z,3.13
2024-05-09T03:59:33.783Z,3.30
2024-05-09T04:02:36.579Z,4.55
2024-05-09T04:05:44.213Z,3.22
2024-05-09T04:08:48.512Z,4.80
2024-05-09T04:11:51.388Z,5.75
2024-05-09T04:14:54.060Z,4.03
2024-05-09T04:17:56.935Z,3.15
2024-05-09T04:20:59.796Z,2.58
2024-05-09T04:24:02.580Z,3.03
2024-05-09T04:27:05.423Z,3.00
2024-05-09T04:30:12.459Z,3.03
2024-05-09T04:33:21.951Z,1.88
2024-05-09T04:36:24.705Z,3.60
2024-05-09T04:39:27.601Z,2.30
2024-05-09T04:42:30.155Z,2.65
2024-05-09T04:45:32.776Z,2.30
2024-05-09T04:48:35.489Z,2.40
2024-05-09T04:51:38.171Z,3.00
2024-05-09T04:54:40.812Z,5.43
2024-05-09T04:57:43.403Z,2.13
2024-05-09T05:00:46.136Z,3.67
2024-05-09T05:03:49.056Z,1.83
2024-05-09T05:06:51.805Z,2.75
2024-05-09T05:09:54.518Z,3.20
2024-05-09T05:13:15.460Z,2.38
2024-05-09T05:16:18.083Z,4.07
2024-05-09T05:19:20.832Z,1.98
2024-05-09T05:22:23.543Z,3.08
2024-05-09T05:25:26.100Z,5.18
2024-05-09T05:28:28.736Z,2.65
2024-05-09T05:31:31.366Z,1.67
2024-05-09T05:34:34.052Z,6.07
2024-05-09T05:37:36.675Z,1.30
2024-05-09T05:40:40.531Z,1.40
2024-05-09T05:43:44.090Z,2.85
2024-05-09T05:46:46.755Z,4.50
2024-05-09T05:49:49.458Z,2.25
2024-05-09T05:52:52.226Z,3.17
2024-05-09T05:55:54.909Z,2.08
2024-05-09T05:58:57.612Z,3.72
2024-05-09T06:02:00.317Z,1.43
2024-05-09T06:05:03.282Z,2.42
2024-05-09T06:08:06.526Z,4.38
2024-05-09T06:11:09.252Z,1.55
2024-05-09T06:14:11.965Z,1.38
2024-05-09T06:17:14.690Z,1.70
2024-05-09T06:20:23.882Z,1.98
2024-05-09T06:23:34.793Z,3.22
2024-05-09T06:26:42.200Z,2.40
2024-05-09T06:29:44.926Z,1.42
2024-05-09T06:32:47.635Z,3.23
2024-05-09T06:35:50.544Z,1.55
2024-05-09T06:38:54.317Z,3.03
2024-05-09T06:41:57.019Z,2.00
2024-05-09T06:44:59.747Z,2.58
2024-05-09T06:48:03.089Z,5.20
2024-05-09T06:51:06.420Z,2.40
2024-05-09T06:54:09.500Z,1.83
2024-05-09T06:57:12.162Z,1.35
2024-05-09T07:00:22.820Z,4.05
2024-05-09T07:03:33.254Z,3.77
2024-05-09T07:06:37.499Z,2.20
2024-05-09T07:09:40.833Z,3.17
2024-05-09T07:12:43.555Z,2.72
2024-05-09T07:15:46.454Z,1.80
2024-05-09T07:18:55.065Z,2.87
2024-05-09T07:21:59.855Z,1.55
2024-05-09T07:25:02.947Z,1.40
2024-05-09T07:28:09.814Z,3.53
2024-05-09T07:31:12.590Z,1.42
2024-05-09T07:34:19.074Z,2.57
2024-05-09T07:37:22.232Z,3.53
2024-05-09T07:40:32.931Z,3.92
2024-05-09T07:43:41.121Z,1.50
2024-05-09T07:47:48.011Z,2.65
2024-05-09T07:53:37.779Z,2.08
2024-05-09T07:56:38.441Z,5.32
2024-05-09T07:59:41.305Z,3.88
2024-05-09T08:02:43.984Z,2.67
2024-05-09T08:05:47.012Z,2.50
2024-05-09T08:08:49.920Z,3.20
2024-05-09T08:11:52.893Z,2.58
2024-05-09T08:14:56.467Z,0.88
2024-05-09T08:18:00.259Z,1.52
2024-05-09T08:21:03.205Z,0.70
2024-05-09T08:24:06.200Z,2.42
2024-05-09T08:27:09.092Z,1.10
2024-05-09T08:30:18.988Z,1.70
2024-05-09T08:33:28.236Z,2.08
2024-05-09T08:36:31.667Z,2.70
2024-05-09T08:39:34.395Z,3.53
2024-05-09T08:42:43.534Z,2.00
2024-05-09T08:45:47.144Z,1.77
2024-05-09T08:48:52.711Z,1.00
2024-05-09T08:51:55.716Z,1.73
2024-05-09T08:54:58.667Z,1.85
2024-05-09T08:58:03.778Z,1.48
2024-05-09T09:01:08.036Z,2.33
2024-05-09T09:04:13.154Z,0.95
2024-05-09T09:07:17.860Z,2.43
2024-05-09T09:10:29.691Z,1.38
2024-05-09T09:13:34.908Z,3.88
2024-05-09T09:16:37.645Z,1.67
2024-05-09T09:19:40.488Z,4.07
2024-05-09T09:22:44.725Z,5.10
2024-05-09T09:25:47.746Z,5.13
2024-05-09T09:28:50.807Z,1.52
2024-05-09T09:32:00.020Z,3.55
2024-05-09T09:35:02.891Z,0.65
2024-05-09T09:38:07.692Z,1.37
2024-05-09T09:41:13.652Z,0.70
2024-05-09T09:44:18.311Z,3.25
2024-05-09T09:47:21.993Z,1.67
2024-05-09T09:50:33.315Z,1.42
2024-05-09T09:53:38.571Z,1.70
2024-05-09T09:56:43.358Z,1.67
2024-05-09T09:59:49.165Z,0.80
2024-05-09T10:02:51.912Z,1.45
2024-05-09T10:05:55.847Z,2.90
2024-05-09T10:08:58.840Z,1.03
2024-05-09T10:12:11.874Z,2.83
2024-05-09T10:15:19.828Z,1.20
2024-05-09T10:18:29.598Z,0.95
2024-05-09T10:21:34.076Z,0.80
2024-05-09T10:24:53.549Z,1.03
2024-05-09T10:27:56.460Z,2.25
2024-05-09T10:31:03.615Z,1.85
2024-05-09T10:34:06.777Z,0.95
2024-05-09T10:37:10.608Z,1.38
2024-05-09T10:40:23.478Z,0.87
2024-05-09T10:43:31.973Z,1.30
2024-05-09T10:46:35.519Z,0.95
2024-05-09T10:49:39.239Z,2.90
2024-05-09T10:52:42.719Z,1.13
2024-05-09T10:55:59.122Z,2.20
2024-05-09T10:59:05.067Z,0.55
2024-05-09T11:02:07.994Z,2.20
2024-05-09T11:05:11.611Z,2.50
2024-05-09T11:08:16.287Z,1.35
2024-05-09T11:11:20.695Z,0.80
2024-05-09T11:14:23.990Z,1.83
2024-05-09T11:17:27.689Z,0.90
2024-05-09T11:20:38.696Z,1.50
2024-05-09T11:23:42.039Z,2.83
2024-05-09T11:26:45.215Z,1.87
2024-05-09T11:29:47.965Z,1.25
2024-05-09T11:32:50.776Z,2.97
2024-05-09T11:35:53.605Z,2.25
2024-05-09T11:38:56.329Z,2.88
2024-05-09T11:41:59.055Z,2.77
2024-05-09T11:45:01.814Z,1.13
2024-05-09T11:48:05.096Z,2.38
2024-05-09T11:51:07.958Z,1.20
2024-05-09T11:54:10.711Z,1.45
2024-05-09T11:57:13.707Z,0.90
2024-05-09T12:00:24.566Z,1.38
2024-05-09T12:03:32.122Z,3.70
2024-05-09T12:06:35.196Z,0.95
2024-05-09T12:09:38.088Z,4.88
2024-05-09T12:12:40.781Z,3.33
2024-05-09T12:15:43.532Z,1.85
2024-05-09T12:18:46.355Z,2.17
2024-05-09T12:21:49.143Z,1.98
2024-05-09T12:24:52.074Z,3.10
2024-05-09T12:27:55.240Z,1.00
2024-05-09T12:30:58.310Z,2.50
2024-05-09T12:34:01.331Z,1.85
2024-05-09T12:37:04.460Z,2.45
2024-05-09T12:40:15.810Z,0.90
2024-05-09T12:43:21.543Z,4.53
2024-05-09T12:46:24.813Z,1.00
2024-05-09T12:49:27.845Z,1.83
2024-05-09T12:52:30.728Z,0.90
2024-05-09T12:55:40.643Z,1.77
2024-05-09T12:58:51.367Z,1.17
2024-05-09T13:01:54.870Z,1.70
2024-05-09T13:04:58.788Z,1.10
2024-05-09T13:08:03.559Z,0.90
2024-05-09T13:11:06.461Z,2.45
2024-05-09T13:14:09.154Z,1.50
2024-05-09T13:17:11.852Z,1.60
2024-05-09T13:20:22.993Z,1.23
2024-05-09T13:23:31.963Z,1.05
2024-05-09T13:26:34.697Z,2.60
2024-05-09T13:29:41.090Z,1.93
2024-05-09T13:32:45.605Z,1.95
2024-05-09T13:35:50.602Z,2.35
2024-05-09T13:38:53.879Z,2.05
2024-05-09T13:41:56.483Z,1.50
2024-05-09T13:44:59.107Z,1.20
2024-05-09T13:48:03.830Z,2.15
2024-05-09T13:51:06.813Z,2.92
2024-05-09T13:54:09.484Z,1.70
2024-05-09T13:57:12.155Z,1.67
2024-05-09T14:00:27.272Z,1.43
2024-05-09T14:03:37.670Z,2.47
2024-05-09T14:06:41.698Z,1.25
2024-05-09T14:09:47.170Z,2.97
2024-05-09T14:12:50.561Z,1.85
2024-05-09T14:15:53.462Z,2.07
2024-05-09T14:18:56.507Z,1.10
2024-05-09T14:21:59.305Z,1.30
2024-05-09T14:25:02.466Z,1.98
2024-05-09T14:28:07.595Z,6.72
2024-05-09T14:31:10.394Z,1.87
2024-05-09T14:34:13.322Z,1.50
2024-05-09T14:37:16.768Z,3.53
2024-05-09T14:40:31.093Z,2.30
2024-05-09T14:43:42.754Z,1.60
2024-05-09T14:46:46.102Z,1.20
2024-05-09T14:49:49.413Z,3.05
2024-05-09T14:52:52.116Z,3.88
2024-05-09T14:55:55.296Z,1.50
2024-05-09T14:58:58.145Z,1.30
2024-05-09T15:02:01.134Z,1.50
2024-05-09T15:05:04.437Z,1.60
2024-05-09T15:08:08.128Z,1.63
2024-05-09T15:11:10.919Z,2.78
2024-05-09T15:14:14.132Z,2.30
2024-05-09T15:17:16.892Z,3.63
2024-05-09T15:20:27.701Z,1.98
2024-05-09T15:23:36.869Z,3.47
2024-05-09T15:26:39.700Z,1.75
2024-05-09T15:29:42.470Z,4.35
2024-05-09T15:32:45.485Z,1.90
2024-05-09T15:35:48.315Z,1.40
2024-05-09T15:38:51.127Z,1.77
2024-05-09T15:41:56.431Z,1.40
2024-05-09T15:45:00.901Z,3.67
2024-05-09T15:48:05.602Z,3.60
2024-05-09T15:51:08.542Z,6.40
2024-05-09T15:54:11.746Z,1.90
2024-05-09T15:57:14.559Z,2.17
2024-05-09T16:00:24.994Z,1.55
2024-05-09T16:03:36.614Z,1.63
2024-05-09T16:06:40.040Z,1.80
2024-05-09T16:09:43.395Z,1.63
2024-05-09T16:12:46.157Z,3.63
2024-05-09T16:15:49.079Z,3.67
2024-05-09T16:18:51.943Z,1.47
2024-05-09T16:21:54.702Z,1.45
2024-05-09T16:24:57.538Z,2.08
2024-05-09T16:28:00.661Z,2.72
2024-05-09T16:31:03.671Z,3.65
2024-05-09T16:34:06.611Z,1.40
2024-05-09T16:37:12.617Z,2.20
2024-05-09T16:40:24.925Z,3.55
2024-05-09T16:43:35.925Z,0.75
2024-05-09T16:46:38.721Z,8.18
2024-05-09T16:49:41.445Z,1.83
2024-05-09T16:52:44.245Z,2.38
2024-05-09T16:55:47.121Z,1.08
2024-05-09T16:58:49.906Z,2.10
2024-05-09T17:01:52.818Z,3.20
2024-05-09T17:04:55.759Z,4.17
2024-05-09T17:07:58.672Z,2.08
2024-05-09T17:11:01.564Z,0.95
2024-05-09T17:14:04.426Z,2.03
2024-05-09T17:17:08.223Z,4.90
2024-05-09T17:20:22.591Z,2.20
2024-05-09T17:23:34.786Z,2.53
2024-05-09T17:26:37.801Z,1.70
2024-05-09T17:29:40.489Z,2.85
2024-05-09T17:32:43.248Z,0.93
2024-05-09T17:35:50.248Z,5.23
2024-05-09T17:38:53.062Z,0.80
2024-05-09T17:41:55.734Z,2.08
2024-05-09T17:44:58.403Z,0.80
2024-05-09T17:48:01.683Z,1.75
2024-05-09T17:51:04.806Z,6.37
2024-05-09T17:54:07.427Z,2.80
2024-05-09T17:57:10.165Z,7.93
2024-05-09T18:00:17.382Z,5.38
2024-05-09T18:03:22.906Z,1.38
2024-05-09T18:06:25.805Z,3.07
2024-05-09T18:09:29.096Z,2.45
2024-05-09T18:12:32.300Z,5.38
2024-05-09T18:15:35.628Z,2.38
2024-05-09T18:18:39.527Z,2.95
2024-05-09T18:21:42.334Z,4.50
2024-05-09T18:24:45.651Z,6.63
2024-05-09T18:27:48.479Z,3.95
2024-05-09T18:30:51.724Z,4.15
2024-05-09T18:33:55.244Z,3.92
2024-05-09T18:37:00.900Z,3.73
2024-05-09T18:40:09.359Z,3.78
2024-05-09T18:43:15.273Z,7.15
2024-05-09T18:46:18.469Z,7.38
2024-05-09T18:49:21.687Z,2.35
2024-05-09T18:52:24.581Z,3.70
2024-05-09T18:55:27.537Z,2.60
2024-05-09T18:58:30.504Z,10.65
2024-05-09T19:01:33.743Z,5.47
2024-05-09T19:04:36.746Z,4.60
2024-05-09T19:07:40.578Z,4.03
2024-05-09T19:10:45.970Z,3.65
2024-05-09T19:13:49.402Z,5.38
2024-05-09T19:16:52.615Z,2.67
2024-05-09T19:19:55.608Z,4.22
2024-05-09T19:22:58.578Z,2.97
2024-05-09T19:26:03.144Z,2.78
2024-05-09T19:29:06.374Z,5.60
2024-05-09T19:32:09.125Z,3.90
2024-05-09T19:35:12.130Z,3.65
2024-05-09T19:38:15.121Z,3.40
2024-05-09T19:41:18.315Z,4.50
2024-05-09T19:44:22.029Z,2.03
2024-05-09T19:47:26.415Z,5.35
2024-05-09T19:50:37.217Z,7.18
2024-05-09T19:53:45.122Z,3.43
2024-05-09T19:56:48.138Z,1.95
2024-05-09T19:59:51.783Z,4.18
2024-05-09T20:02:55.391Z,2.80
2024-05-09T20:05:58.399Z,4.97
2024-05-09T20:09:01.864Z,3.40
2024-05-09T20:12:05.549Z,1.58
2024-05-09T20:15:09.045Z,3.00
2024-05-09T20:18:13.392Z,6.28
2024-05-09T20:21:17.052Z,6.82
2024-05-09T20:24:20.896Z,9.07
2024-05-09T20:27:24.156Z,2.33
2024-05-09T20:30:32.145Z,4.10
2024-05-09T20:33:37.975Z,3.60
2024-05-09T20:36:41.149Z,2.10
2024-05-09T20:39:44.111Z,8.70
2024-05-09T20:42:47.147Z,4.07
2024-05-09T20:45:50.060Z,2.63
2024-05-09T20:48:53.297Z,2.15
2024-05-09T20:51:56.282Z,4.18
2024-05-09T20:54:58.990Z,3.37
2024-05-09T20:58:01.681Z,2.03
2024-05-09T21:01:04.592Z,4.30
2024-05-09T21:04:07.559Z,3.28
2024-05-09T21:07:10.388Z,2.67
2024-05-09T21:10:19.364Z,4.53
2024-05-09T21:13:25.367Z,2.90
2024-05-09T21:16:28.178Z,4.35
2024-05-09T21:19:30.907Z,4.18
2024-05-09T21:22:33.546Z,3.38
2024-05-09T21:25:36.328Z,2.97
2024-05-09T21:28:39.027Z,3.60
2024-05-09T21:31:41.697Z,2.63
2024-05-09T21:34:44.449Z,5.07
2024-05-09T21:37:47.248Z,2.72
2024-05-09T21:40:50.120Z,4.80
2024-05-09T21:43:52.863Z,3.30
2024-05-09T21:46:56.315Z,4.00
2024-05-09T21:49:58.944Z,4.00
2024-05-09T21:53:01.744Z,2.72
2024-05-09T21:56:04.616Z,5.27
2024-05-09T21:59:07.230Z,6.10
2024-05-09T22:02:10.051Z,3.10
2024-05-09T22:05:13.849Z,3.83
2024-05-09T22:08:16.827Z,5.55
2024-05-09T22:11:19.564Z,4.50
2024-05-09T22:14:22.437Z,4.15
2024-05-09T22:17:25.108Z,3.35
2024-05-09T22:20:34.404Z,2.85
2024-05-09T22:23:40.556Z,4.72
2024-05-09T22:26:43.153Z,7.90
2024-05-09T22:29:45.796Z,3.90
2024-05-09T22:32:48.500Z,3.90
2024-05-09T22:35:51.553Z,3.05
2024-05-09T22:38:54.185Z,6.28
2024-05-09T22:41:56.765Z,3.77
2024-05-09T22:44:59.371Z,2.38
2024-05-09T22:48:02.122Z,2.97
2024-05-09T22:51:05.090Z,3.92
2024-05-09T22:54:07.871Z,3.75
2024-05-09T22:57:10.507Z,2.93
2024-05-09T23:00:15.994Z,8.63
2024-05-09T23:03:21.528Z,2.63
2024-05-09T23:06:24.581Z,6.20
2024-05-09T23:09:27.381Z,1.85
2024-05-09T23:12:30.003Z,2.57
2024-05-09T23:15:32.763Z,6.75
2024-05-09T23:18:35.455Z,2.78
2024-05-09T23:21:39.929Z,4.03
2024-05-09T23:24:42.938Z,4.28
2024-05-09T23:27:45.617Z,5.13
2024-05-09T23:30:48.381Z,7.30
2024-05-09T23:33:51.220Z,8.85
2024-05-09T23:36:54.085Z,4.60
2024-05-09T23:39:56.748Z,4.45
2024-05-09T23:42:59.525Z,5.37
2024-05-09T23:46:02.635Z,5.45
2024-05-09T23:49:05.870Z,4.20
2024-05-09T23:52:08.544Z,5.50
2024-05-09T23:55:11.278Z,5.40
2024-05-09T23:58:14.100Z,4.20
